sensor_id;sensor_type;location;lat;lon;timestamp;P1;durP1;ratioP1;P2;durP2;ratioP2
41897;SDS011;27576;53.366;-1.498;2023-04-01T00:00:28;8.32;;;5.05;;
41897;SDS011;27576;53.366;-1.498;2023-04-01T00:02:54;6.75;;;4.43;;
41897;SDS011;27576;53.366;-1.498;2023-04-01T00:05:20;4.75;;;4.30;;
41897;SDS011;27576;53.366;-1.498;2023-04-01T00:07:46;8.00;;;4.50;;
41897;SDS011;27576;53.366;-1.498;2023-04-01T00:10:11;5.82;;;3.90;;
41897;SDS011;27576;53.366;-1.498;2023-04-01T00:12:38;7.03;;;4.38;;
41897;SDS011;27576;53.366;-1.498;2023-04-01T00:15:04;5.05;;;3.92;;
41897;SDS011;27576;53.366;-1.498;2023-04-01T00:17:30;9.40;;;4.55;;
41897;SDS011;27576;53.366;-1.498;2023-04-01T00:19:56;6.90;;;4.28;;
41897;SDS011;27576;53.366;-1.498;2023-04-01T00:22:22;5.70;;;3.83;;
41897;SDS011;27576;53.366;-1.498;2023-04-01T00:24:48;7.65;;;4.10;;
41897;SDS011;27576;53.366;-1.498;2023-04-01T00:27:14;5.50;;;4.47;;
41897;SDS011;27576;53.366;-1.498;2023-04-01T00:29:43;6.70;;;3.90;;
41897;SDS011;27576;53.366;-1.498;2023-04-01T00:32:11;5.70;;;3.80;;
41897;SDS011;27576;53.366;-1.498;2023-04-01T00:34:37;5.70;;;4.07;;
41897;SDS011;27576;53.366;-1.498;2023-04-01T00:37:02;5.70;;;3.30;;
41897;SDS011;27576;53.366;-1.498;2023-04-01T00:39:32;6.72;;;3.60;;
41897;SDS011;27576;53.366;-1.498;2023-04-01T00:41:59;7.00;;;3.92;;
41897;SDS011;27576;53.366;-1.498;2023-04-01T00:44:26;5.85;;;3.45;;
41897;SDS011;27576;53.366;-1.498;2023-04-01T00:46:53;5.32;;;3.85;;
41897;SDS011;27576;53.366;-1.498;2023-04-01T00:49:20;7.90;;;4.05;;
41897;SDS011;27576;53.366;-1.498;2023-04-01T00:51:50;6.85;;;4.20;;
41897;SDS011;27576;53.366;-1.498;2023-04-01T00:54:18;5.32;;;4.00;;
41897;SDS011;27576;53.366;-1.498;2023-04-01T00:56:47;5.93;;;3.83;;
41897;SDS011;27576;53.366;-1.498;2023-04-01T00:59:27;6.15;;;4.60;;
41897;SDS011;27576;53.366;-1.498;2023-04-01T01:01:57;7.22;;;4.50;;
41897;SDS011;27576;53.366;-1.498;2023-04-01T01:04:23;5.53;;;4.05;;
41897;SDS011;27576;53.366;-1.498;2023-04-01T01:09:45;5.55;;;4.00;;
41897;SDS011;27576;53.366;-1.498;2023-04-01T01:17:59;5.57;;;3.78;;
41897;SDS011;27576;53.366;-1.498;2023-04-01T01:37:38;4.68;;;4.00;;
41897;SDS011;27576;53.366;-1.498;2023-04-01T01:40:07;8.93;;;4.45;;
41897;SDS011;27576;53.366;-1.498;2023-04-01T01:42:37;4.90;;;3.60;;
41897;SDS011;27576;53.366;-1.498;2023-04-01T01:45:05;4.82;;;3.80;;
41897;SDS011;27576;53.366;-1.498;2023-04-01T01:47:33;5.47;;;3.53;;
41897;SDS011;27576;53.366;-1.498;2023-04-01T01:50:00;4.88;;;3.60;;
41897;SDS011;27576;53.366;-1.498;2023-04-01T01:52:28;5.03;;;3.33;;
41897;SDS011;27576;53.366;-1.498;2023-04-01T01:54:54;6.15;;;3.58;;
41897;SDS011;27576;53.366;-1.498;2023-04-01T01:57:34;5.97;;;3.80;;
41897;SDS011;27576;53.366;-1.498;2023-04-01T02:00:05;5.88;;;3.45;;
41897;SDS011;27576;53.366;-1.498;2023-04-01T02:02:39;4.50;;;3.38;;
41897;SDS011;27576;53.366;-1.498;2023-04-01T02:05:05;4.35;;;3.30;;
41897;SDS011;27576;53.366;-1.498;2023-04-01T02:07:35;4.57;;;3.33;;
41897;SDS011;27576;53.366;-1.498;2023-04-01T02:10:04;4.57;;;3.15;;
41897;SDS011;27576;53.366;-1.498;2023-04-01T02:12:29;6.22;;;3.17;;
41897;SDS011;27576;53.366;-1.498;2023-04-01T02:15:06;3.40;;;2.70;;
41897;SDS011;27576;53.366;-1.498;2023-04-01T02:17:34;4.40;;;3.10;;
41897;SDS011;27576;53.366;-1.498;2023-04-01T02:22:40;6.70;;;3.22;;
41897;SDS011;27576;53.366;-1.498;2023-04-01T02:25:12;4.60;;;3.03;;
41897;SDS011;27576;53.366;-1.498;2023-04-01T02:27:41;5.50;;;3.47;;
41897;SDS011;27576;53.366;-1.498;2023-04-01T02:30:09;5.25;;;3.85;;
41897;SDS011;27576;53.366;-1.498;2023-04-01T02:32:35;4.93;;;3.53;;
41897;SDS011;27576;53.366;-1.498;2023-04-01T02:35:04;6.15;;;3.60;;
41897;SDS011;27576;53.366;-1.498;2023-04-01T02:37:32;4.80;;;3.10;;
41897;SDS011;27576;53.366;-1.498;2023-04-01T02:40:00;5.55;;;3.78;;
41897;SDS011;27576;53.366;-1.498;2023-04-01T02:42:27;5.20;;;3.03;;
41897;SDS011;27576;53.366;-1.498;2023-04-01T02:44:53;7.28;;;3.25;;
41897;SDS011;27576;53.366;-1.498;2023-04-01T02:47:18;5.18;;;3.42;;
41897;SDS011;27576;53.366;-1.498;2023-04-01T02:49:43;7.18;;;2.95;;
41897;SDS011;27576;53.366;-1.498;2023-04-01T02:52:09;6.55;;;2.90;;
41897;SDS011;27576;53.366;-1.498;2023-04-01T02:54:34;5.53;;;3.00;;
41897;SDS011;27576;53.366;-1.498;2023-04-01T02:57:00;5.50;;;2.53;;
41897;SDS011;27576;53.366;-1.498;2023-04-01T02:59:25;7.15;;;2.70;;
41897;SDS011;27576;53.366;-1.498;2023-04-01T03:01:50;4.88;;;2.90;;
41897;SDS011;27576;53.366;-1.498;2023-04-01T03:04:16;2.30;;;1.95;;
41897;SDS011;27576;53.366;-1.498;2023-04-01T03:06:41;4.90;;;2.38;;
41897;SDS011;27576;53.366;-1.498;2023-04-01T03:09:06;7.07;;;2.75;;
41897;SDS011;27576;53.366;-1.498;2023-04-01T03:11:32;9.25;;;2.42;;
41897;SDS011;27576;53.366;-1.498;2023-04-01T03:13:57;5.07;;;2.80;;
41897;SDS011;27576;53.366;-1.498;2023-04-01T03:16:22;8.00;;;3.22;;
41897;SDS011;27576;53.366;-1.498;2023-04-01T03:18:48;10.65;;;3.40;;
41897;SDS011;27576;53.366;-1.498;2023-04-01T03:21:20;7.63;;;2.90;;
41897;SDS011;27576;53.366;-1.498;2023-04-01T03:23:47;5.95;;;3.30;;
41897;SDS011;27576;53.366;-1.498;2023-04-01T03:26:12;5.85;;;3.20;;
41897;SDS011;27576;53.366;-1.498;2023-04-01T03:28:38;5.78;;;3.47;;
41897;SDS011;27576;53.366;-1.498;2023-04-01T03:31:04;5.75;;;3.42;;
41897;SDS011;27576;53.366;-1.498;2023-04-01T03:33:30;4.68;;;3.20;;
41897;SDS011;27576;53.366;-1.498;2023-04-01T03:35:56;4.78;;;3.17;;
41897;SDS011;27576;53.366;-1.498;2023-04-01T03:38:21;5.75;;;3.53;;
41897;SDS011;27576;53.366;-1.498;2023-04-01T03:40:46;6.30;;;2.72;;
41897;SDS011;27576;53.366;-1.498;2023-04-01T03:43:12;4.35;;;2.50;;
41897;SDS011;27576;53.366;-1.498;2023-04-01T03:45:47;4.97;;;2.42;;
41897;SDS011;27576;53.366;-1.498;2023-04-01T03:48:14;5.20;;;2.47;;
41897;SDS011;27576;53.366;-1.498;2023-04-01T03:50:40;4.35;;;2.63;;
41897;SDS011;27576;53.366;-1.498;2023-04-01T03:53:05;4.35;;;2.53;;
41897;SDS011;27576;53.366;-1.498;2023-04-01T03:55:31;4.60;;;2.58;;
41897;SDS011;27576;53.366;-1.498;2023-04-01T03:57:56;9.82;;;2.83;;
41897;SDS011;27576;53.366;-1.498;2023-04-01T04:00:22;3.50;;;2.25;;
41897;SDS011;27576;53.366;-1.498;2023-04-01T04:02:47;6.05;;;2.78;;
41897;SDS011;27576;53.366;-1.498;2023-04-01T04:05:12;4.28;;;2.42;;
41897;SDS011;27576;53.366;-1.498;2023-04-01T04:07:38;3.67;;;2.40;;
41897;SDS011;27576;53.366;-1.498;2023-04-01T04:10:04;5.25;;;2.20;;
41897;SDS011;27576;53.366;-1.498;2023-04-01T04:12:30;5.93;;;2.60;;
41897;SDS011;27576;53.366;-1.498;2023-04-01T04:14:55;5.05;;;2.45;;
41897;SDS011;27576;53.366;-1.498;2023-04-01T04:17:21;7.13;;;2.63;;
41897;SDS011;27576;53.366;-1.498;2023-04-01T04:19:46;2.55;;;1.90;;
41897;SDS011;27576;53.366;-1.498;2023-04-01T04:22:12;5.00;;;2.40;;
41897;SDS011;27576;53.366;-1.498;2023-04-01T04:24:37;3.47;;;2.10;;
41897;SDS011;27576;53.366;-1.498;2023-04-01T04:27:03;5.25;;;2.10;;
41897;SDS011;27576;53.366;-1.498;2023-04-01T04:29:28;6.53;;;2.08;;
41897;SDS011;27576;53.366;-1.498;2023-04-01T04:31:54;5.45;;;2.35;;
41897;SDS011;27576;53.366;-1.498;2023-04-01T04:34:20;6.03;;;2.25;;
41897;SDS011;27576;53.366;-1.498;2023-04-01T04:36:47;2.50;;;2.28;;
41897;SDS011;27576;53.366;-1.498;2023-04-01T04:39:12;3.45;;;1.95;;
41897;SDS011;27576;53.366;-1.498;2023-04-01T04:41:38;4.55;;;2.42;;
41897;SDS011;27576;53.366;-1.498;2023-04-01T04:44:03;3.75;;;2.15;;
41897;SDS011;27576;53.366;-1.498;2023-04-01T04:46:29;2.90;;;2.50;;
41897;SDS011;27576;53.366;-1.498;2023-04-01T04:48:55;5.38;;;2.10;;
41897;SDS011;27576;53.366;-1.498;2023-04-01T04:51:21;2.58;;;1.88;;
41897;SDS011;27576;53.366;-1.498;2023-04-01T04:53:47;5.35;;;2.15;;
41897;SDS011;27576;53.366;-1.498;2023-04-01T04:56:13;3.72;;;2.13;;
41897;SDS011;27576;53.366;-1.498;2023-04-01T04:58:42;3.40;;;2.20;;
41897;SDS011;27576;53.366;-1.498;2023-04-01T05:01:11;2.53;;;1.95;;
41897;SDS011;27576;53.366;-1.498;2023-04-01T05:03:38;3.67;;;2.25;;
41897;SDS011;27576;53.366;-1.498;2023-04-01T05:06:04;3.80;;;2.20;;
41897;SDS011;27576;53.366;-1.498;2023-04-01T05:08:30;4.75;;;2.88;;
41897;SDS011;27576;53.366;-1.498;2023-04-01T05:10:57;3.97;;;2.40;;
41897;SDS011;27576;53.366;-1.498;2023-04-01T05:13:23;4.57;;;2.55;;
41897;SDS011;27576;53.366;-1.498;2023-04-01T05:15:49;5.40;;;2.30;;
41897;SDS011;27576;53.366;-1.498;2023-04-01T05:18:14;5.55;;;2.95;;
41897;SDS011;27576;53.366;-1.498;2023-04-01T05:20:45;5.45;;;3.00;;
41897;SDS011;27576;53.366;-1.498;2023-04-01T05:23:11;4.95;;;2.65;;
41897;SDS011;27576;53.366;-1.498;2023-04-01T05:25:37;7.70;;;2.50;;
41897;SDS011;27576;53.366;-1.498;2023-04-01T05:28:03;4.95;;;2.95;;
41897;SDS011;27576;53.366;-1.498;2023-04-01T05:30:28;5.78;;;2.97;;
41897;SDS011;27576;53.366;-1.498;2023-04-01T05:32:54;4.68;;;2.70;;
41897;SDS011;27576;53.366;-1.498;2023-04-01T05:35:19;4.68;;;2.92;;
41897;SDS011;27576;53.366;-1.498;2023-04-01T05:37:45;6.25;;;3.70;;
41897;SDS011;27576;53.366;-1.498;2023-04-01T05:40:10;9.40;;;5.43;;
41897;SDS011;27576;53.366;-1.498;2023-04-01T05:42:36;6.57;;;4.50;;
41897;SDS011;27576;53.366;-1.498;2023-04-01T05:45:01;5.57;;;3.78;;
41897;SDS011;27576;53.366;-1.498;2023-04-01T05:47:26;11.50;;;4.80;;
41897;SDS011;27576;53.366;-1.498;2023-04-01T05:49:52;9.43;;;5.40;;
41897;SDS011;27576;53.366;-1.498;2023-04-01T05:52:17;6.60;;;4.00;;
41897;SDS011;27576;53.366;-1.498;2023-04-01T05:54:42;7.63;;;4.60;;
41897;SDS011;27576;53.366;-1.498;2023-04-01T05:57:08;7.25;;;4.00;;
41897;SDS011;27576;53.366;-1.498;2023-04-01T05:59:33;12.38;;;4.07;;
41897;SDS011;27576;53.366;-1.498;2023-04-01T06:01:59;13.40;;;3.58;;
41897;SDS011;27576;53.366;-1.498;2023-04-01T06:04:26;6.22;;;3.33;;
41897;SDS011;27576;53.366;-1.498;2023-04-01T06:06:57;8.18;;;2.80;;
41897;SDS011;27576;53.366;-1.498;2023-04-01T06:09:26;9.23;;;2.95;;
41897;SDS011;27576;53.366;-1.498;2023-04-01T06:37:18;3.58;;;2.47;;
41897;SDS011;27576;53.366;-1.498;2023-04-01T06:53:22;3.97;;;2.53;;
41897;SDS011;27576;53.366;-1.498;2023-04-01T06:56:08;6.25;;;3.00;;
41897;SDS011;27576;53.366;-1.498;2023-04-01T06:58:39;5.30;;;3.33;;
41897;SDS011;27576;53.366;-1.498;2023-04-01T07:01:13;5.20;;;3.53;;
41897;SDS011;27576;53.366;-1.498;2023-04-01T07:03:55;5.93;;;3.15;;
41897;SDS011;27576;53.366;-1.498;2023-04-01T07:06:30;8.93;;;3.65;;
41897;SDS011;27576;53.366;-1.498;2023-04-01T07:09:00;7.30;;;3.10;;
41897;SDS011;27576;53.366;-1.498;2023-04-01T07:11:33;5.70;;;3.80;;
41897;SDS011;27576;53.366;-1.498;2023-04-01T07:27:56;5.72;;;2.65;;
41897;SDS011;27576;53.366;-1.498;2023-04-01T07:30:26;3.63;;;2.60;;
41897;SDS011;27576;53.366;-1.498;2023-04-01T07:35:31;6.32;;;3.30;;
41897;SDS011;27576;53.366;-1.498;2023-04-01T07:41:06;5.40;;;2.60;;
41897;SDS011;27576;53.366;-1.498;2023-04-01T07:49:17;7.70;;;2.33;;
41897;SDS011;27576;53.366;-1.498;2023-04-01T07:52:00;3.78;;;2.90;;
41897;SDS011;27576;53.366;-1.498;2023-04-01T07:57:16;4.22;;;2.63;;
41897;SDS011;27576;53.366;-1.498;2023-04-01T08:05:25;5.80;;;3.30;;
41897;SDS011;27576;53.366;-1.498;2023-04-01T08:14:01;5.65;;;2.70;;
41897;SDS011;27576;53.366;-1.498;2023-04-01T08:21:45;3.85;;;3.08;;
41897;SDS011;27576;53.366;-1.498;2023-04-01T08:24:29;4.68;;;2.85;;
41897;SDS011;27576;53.366;-1.498;2023-04-01T08:27:02;5.47;;;2.95;;
41897;SDS011;27576;53.366;-1.498;2023-04-01T08:29:36;5.72;;;2.63;;
41897;SDS011;27576;53.366;-1.498;2023-04-01T08:34:39;4.85;;;3.15;;
41897;SDS011;27576;53.366;-1.498;2023-04-01T08:37:12;5.50;;;2.97;;
41897;SDS011;27576;53.366;-1.498;2023-04-01T08:39:55;6.47;;;2.95;;
41897;SDS011;27576;53.366;-1.498;2023-04-01T08:42:31;5.15;;;3.33;;
41897;SDS011;27576;53.366;-1.498;2023-04-01T08:53:29;3.95;;;2.78;;
41897;SDS011;27576;53.366;-1.498;2023-04-01T08:59:08;6.65;;;3.10;;
41897;SDS011;27576;53.366;-1.498;2023-04-01T09:06:57;7.13;;;3.00;;
41897;SDS011;27576;53.366;-1.498;2023-04-01T09:09:56;6.05;;;3.50;;
41897;SDS011;27576;53.366;-1.498;2023-04-01T09:12:31;4.35;;;2.42;;
41897;SDS011;27576;53.366;-1.498;2023-04-01T09:29:26;2.78;;;1.80;;
41897;SDS011;27576;53.366;-1.498;2023-04-01T09:35:00;2.95;;;1.75;;
41897;SDS011;27576;53.366;-1.498;2023-04-01T09:43:33;4.10;;;1.83;;
41897;SDS011;27576;53.366;-1.498;2023-04-01T09:49:06;3.55;;;2.30;;
41897;SDS011;27576;53.366;-1.498;2023-04-01T09:52:00;2.88;;;1.90;;
41897;SDS011;27576;53.366;-1.498;2023-04-01T09:54:51;2.63;;;1.70;;
41897;SDS011;27576;53.366;-1.498;2023-04-01T10:03:36;2.83;;;1.65;;
41897;SDS011;27576;53.366;-1.498;2023-04-01T10:32:06;1.50;;;1.08;;
41897;SDS011;27576;53.366;-1.498;2023-04-01T11:04:05;2.63;;;1.60;;
41897;SDS011;27576;53.366;-1.498;2023-04-01T11:37:30;1.85;;;1.50;;
41897;SDS011;27576;53.366;-1.498;2023-04-01T11:40:11;3.10;;;1.85;;
41897;SDS011;27576;53.366;-1.498;2023-04-01T11:43:11;2.03;;;1.60;;
41897;SDS011;27576;53.366;-1.498;2023-04-01T11:45:56;3.15;;;1.70;;
41897;SDS011;27576;53.366;-1.498;2023-04-01T11:48:46;2.08;;;1.73;;
41897;SDS011;27576;53.366;-1.498;2023-04-01T11:51:34;2.08;;;1.60;;
41897;SDS011;27576;53.366;-1.498;2023-04-01T11:54:39;1.67;;;1.50;;
41897;SDS011;27576;53.366;-1.498;2023-04-01T12:10:51;3.97;;;2.20;;
41897;SDS011;27576;53.366;-1.498;2023-04-01T12:18:40;3.20;;;1.40;;
41897;SDS011;27576;53.366;-1.498;2023-04-01T12:37:55;1.95;;;1.40;;
41897;SDS011;27576;53.366;-1.498;2023-04-01T12:43:17;3.03;;;1.35;;
41897;SDS011;27576;53.366;-1.498;2023-04-01T13:08:47;6.97;;;2.72;;
41897;SDS011;27576;53.366;-1.498;2023-04-01T13:27:47;1.80;;;1.42;;
41897;SDS011;27576;53.366;-1.498;2023-04-01T13:30:30;2.70;;;1.50;;
41897;SDS011;27576;53.366;-1.498;2023-04-01T13:39:02;3.20;;;1.92;;
41897;SDS011;27576;53.366;-1.498;2023-04-01T13:44:20;3.50;;;1.90;;
41897;SDS011;27576;53.366;-1.498;2023-04-01T13:49:48;2.70;;;1.67;;
41897;SDS011;27576;53.366;-1.498;2023-04-01T13:55:52;3.28;;;1.40;;
41897;SDS011;27576;53.366;-1.498;2023-04-01T14:00:57;2.13;;;1.60;;
41897;SDS011;27576;53.366;-1.498;2023-04-01T14:08:47;3.17;;;1.40;;
41897;SDS011;27576;53.366;-1.498;2023-04-01T14:17:10;2.58;;;1.55;;
41897;SDS011;27576;53.366;-1.498;2023-04-01T14:41:26;3.17;;;1.85;;
41897;SDS011;27576;53.366;-1.498;2023-04-01T14:49:17;3.30;;;1.60;;
41897;SDS011;27576;53.366;-1.498;2023-04-01T14:51:49;2.72;;;1.80;;
41897;SDS011;27576;53.366;-1.498;2023-04-01T14:54:18;5.32;;;2.60;;
41897;SDS011;27576;53.366;-1.498;2023-04-01T14:56:50;5.53;;;2.40;;
41897;SDS011;27576;53.366;-1.498;2023-04-01T14:59:29;4.50;;;1.98;;
41897;SDS011;27576;53.366;-1.498;2023-04-01T15:01:57;1.45;;;1.35;;
41897;SDS011;27576;53.366;-1.498;2023-04-01T15:09:57;2.97;;;2.20;;
41897;SDS011;27576;53.366;-1.498;2023-04-01T15:12:30;3.17;;;2.30;;
41897;SDS011;27576;53.366;-1.498;2023-04-01T15:15:30;3.47;;;2.20;;
41897;SDS011;27576;53.366;-1.498;2023-04-01T15:18:14;3.05;;;2.35;;
41897;SDS011;27576;53.366;-1.498;2023-04-01T15:23:49;5.00;;;2.00;;
41897;SDS011;27576;53.366;-1.498;2023-04-01T15:31:20;7.05;;;2.67;;
41897;SDS011;27576;53.366;-1.498;2023-04-01T15:34:05;2.92;;;2.35;;
41897;SDS011;27576;53.366;-1.498;2023-04-01T15:36:52;2.85;;;2.55;;
41897;SDS011;27576;53.366;-1.498;2023-04-01T15:56:52;4.38;;;2.53;;
41897;SDS011;27576;53.366;-1.498;2023-04-01T16:02:33;4.50;;;2.25;;
41897;SDS011;27576;53.366;-1.498;2023-04-01T16:18:11;8.07;;;3.63;;
41897;SDS011;27576;53.366;-1.498;2023-04-01T16:21:45;8.98;;;4.30;;
41897;SDS011;27576;53.366;-1.498;2023-04-01T16:26:52;10.55;;;4.78;;
41897;SDS011;27576;53.366;-1.498;2023-04-01T16:31:55;10.00;;;4.60;;
41897;SDS011;27576;53.366;-1.498;2023-04-01T16:35:40;11.82;;;5.60;;
41897;SDS011;27576;53.366;-1.498;2023-04-01T16:37:50;10.27;;;4.80;;
41897;SDS011;27576;53.366;-1.498;2023-04-01T16:40:25;10.60;;;4.65;;
41897;SDS011;27576;53.366;-1.498;2023-04-01T16:43:10;10.60;;;4.78;;
41897;SDS011;27576;53.366;-1.498;2023-04-01T16:48:15;10.88;;;4.15;;
41897;SDS011;27576;53.366;-1.498;2023-04-01T16:53:30;9.38;;;4.32;;
41897;SDS011;27576;53.366;-1.498;2023-04-01T17:01:44;6.28;;;4.18;;
41897;SDS011;27576;53.366;-1.498;2023-04-01T17:04:23;13.80;;;5.18;;
41897;SDS011;27576;53.366;-1.498;2023-04-01T17:21:49;7.68;;;4.75;;
41897;SDS011;27576;53.366;-1.498;2023-04-01T17:24:26;11.60;;;5.55;;
41897;SDS011;27576;53.366;-1.498;2023-04-01T17:27:08;10.85;;;5.43;;
41897;SDS011;27576;53.366;-1.498;2023-04-01T17:35:06;8.35;;;5.22;;
41897;SDS011;27576;53.366;-1.498;2023-04-01T17:37:46;9.75;;;4.97;;
41897;SDS011;27576;53.366;-1.498;2023-04-01T17:48:24;13.98;;;6.78;;
41897;SDS011;27576;53.366;-1.498;2023-04-01T17:56:28;11.52;;;6.35;;
41897;SDS011;27576;53.366;-1.498;2023-04-01T18:16:14;10.95;;;6.13;;
41897;SDS011;27576;53.366;-1.498;2023-04-01T18:21:42;7.60;;;4.90;;
41897;SDS011;27576;53.366;-1.498;2023-04-01T18:24:26;7.40;;;5.18;;
41897;SDS011;27576;53.366;-1.498;2023-04-01T18:27:07;7.70;;;4.63;;
41897;SDS011;27576;53.366;-1.498;2023-04-01T18:34:41;10.38;;;5.47;;
41897;SDS011;27576;53.366;-1.498;2023-04-01T18:37:28;12.27;;;5.07;;
41897;SDS011;27576;53.366;-1.498;2023-04-01T18:40:16;5.68;;;4.80;;
41897;SDS011;27576;53.366;-1.498;2023-04-01T18:43:21;9.18;;;5.22;;
41897;SDS011;27576;53.366;-1.498;2023-04-01T18:46:03;6.45;;;4.72;;
41897;SDS011;27576;53.366;-1.498;2023-04-01T18:51:18;6.75;;;5.43;;
41897;SDS011;27576;53.366;-1.498;2023-04-01T18:53:55;12.27;;;6.20;;
41897;SDS011;27576;53.366;-1.498;2023-04-01T18:59:01;9.88;;;7.28;;
41897;SDS011;27576;53.366;-1.498;2023-04-01T19:06:57;6.30;;;5.15;;
41897;SDS011;27576;53.366;-1.498;2023-04-01T19:12:26;7.45;;;5.72;;
41897;SDS011;27576;53.366;-1.498;2023-04-01T19:32:16;8.18;;;5.72;;
41897;SDS011;27576;53.366;-1.498;2023-04-01T19:46:27;8.98;;;6.57;;
41897;SDS011;27576;53.366;-1.498;2023-04-01T20:02:53;8.57;;;6.13;;
41897;SDS011;27576;53.366;-1.498;2023-04-01T20:05:28;7.70;;;6.60;;
41897;SDS011;27576;53.366;-1.498;2023-04-01T20:08:07;11.00;;;6.72;;
41897;SDS011;27576;53.366;-1.498;2023-04-01T20:16:02;9.23;;;6.15;;
41897;SDS011;27576;53.366;-1.498;2023-04-01T20:21:24;8.05;;;5.97;;
41897;SDS011;27576;53.366;-1.498;2023-04-01T20:26:39;7.80;;;5.10;;
41897;SDS011;27576;53.366;-1.498;2023-04-01T20:32:11;7.03;;;4.70;;
41897;SDS011;27576;53.366;-1.498;2023-04-01T20:40:37;7.40;;;4.85;;
41897;SDS011;27576;53.366;-1.498;2023-04-01T20:46:03;7.88;;;5.57;;
41897;SDS011;27576;53.366;-1.498;2023-04-01T20:51:32;8.38;;;5.30;;
41897;SDS011;27576;53.366;-1.498;2023-04-01T21:08:09;9.15;;;4.72;;
41897;SDS011;27576;53.366;-1.498;2023-04-01T21:21:31;6.15;;;4.68;;
41897;SDS011;27576;53.366;-1.498;2023-04-01T21:43:03;6.57;;;4.35;;
41897;SDS011;27576;53.366;-1.498;2023-04-01T21:51:50;7.60;;;4.32;;
41897;SDS011;27576;53.366;-1.498;2023-04-01T22:00:17;8.82;;;4.38;;
41897;SDS011;27576;53.366;-1.498;2023-04-01T22:17:05;8.82;;;5.57;;
41897;SDS011;27576;53.366;-1.498;2023-04-01T22:22:45;8.40;;;5.78;;
41897;SDS011;27576;53.366;-1.498;2023-04-01T22:28:12;10.23;;;5.40;;
41897;SDS011;27576;53.366;-1.498;2023-04-01T22:30:49;12.07;;;6.43;;
41897;SDS011;27576;53.366;-1.498;2023-04-01T22:33:20;10.25;;;6.05;;
41897;SDS011;27576;53.366;-1.498;2023-04-01T22:35:58;8.77;;;5.90;;
41897;SDS011;27576;53.366;-1.498;2023-04-01T22:41:20;12.07;;;6.43;;
41897;SDS011;27576;53.366;-1.498;2023-04-01T22:44:40;13.55;;;7.53;;
41897;SDS011;27576;53.366;-1.498;2023-04-01T22:49:57;8.88;;;6.40;;
41897;SDS011;27576;53.366;-1.498;2023-04-01T22:54:59;13.35;;;7.18;;
41897;SDS011;27576;53.366;-1.498;2023-04-01T23:00:07;13.25;;;7.13;;
41897;SDS011;27576;53.366;-1.498;2023-04-01T23:02:39;15.85;;;7.35;;
41897;SDS011;27576;53.366;-1.498;2023-04-01T23:05:10;9.73;;;6.50;;
41897;SDS011;27576;53.366;-1.498;2023-04-01T23:13:37;12.02;;;7.05;;
41897;SDS011;27576;53.366;-1.498;2023-04-01T23:16:09;12.57;;;7.88;;
41897;SDS011;27576;53.366;-1.498;2023-04-01T23:26:32;10.82;;;6.72;;
41897;SDS011;27576;53.366;-1.498;2023-04-01T23:29:08;8.88;;;5.97;;
41897;SDS011;27576;53.366;-1.498;2023-04-01T23:31:43;11.95;;;6.95;;
41897;SDS011;27576;53.366;-1.498;2023-04-01T23:36:40;11.55;;;7.15;;
41897;SDS011;27576;53.366;-1.498;2023-04-01T23:39:17;10.35;;;7.35;;
41897;SDS011;27576;53.366;-1.498;2023-04-01T23:41:51;9.40;;;6.65;;
41897;SDS011;27576;53.366;-1.498;2023-04-01T23:44:19;10.93;;;6.05;;
41897;SDS011;27576;53.366;-1.498;2023-04-01T23:46:46;11.23;;;5.90;;
41897;SDS011;27576;53.366;-1.498;2023-04-01T23:49:15;9.25;;;6.07;;
41897;SDS011;27576;53.366;-1.498;2023-04-01T23:51:56;8.65;;;5.90;;
41897;SDS011;27576;53.366;-1.498;2023-04-01T23:54:44;12.05;;;6.63;;
41897;SDS011;27576;53.366;-1.498;2023-04-01T23:57:27;10.18;;;7.07;;
41897;SDS011;27576;53.366;-1.498;2023-04-01T23:59:59;13.27;;;7.18;;
